createdAt,value
2018-04-06T00:00:52.609Z,16.17
2018-04-06T00:03:21.495Z,12.23
2018-04-06T00:05:50.379Z,11.82
2018-04-06T00:08:19.268Z,11.25
2018-04-06T00:10:48.139Z,13.15
2018-04-06T00:13:16.257Z,11.63
2018-04-06T00:15:44.386Z,11.40
2018-04-06T00:18:12.521Z,14.50
2018-04-06T00:20:41.543Z,17.48
2018-04-06T00:23:09.673Z,13.32
2018-04-06T00:25:37.815Z,14.30
2018-04-06T00:28:06.688Z,15.45
2018-04-06T00:30:34.821Z,10.70
2018-04-06T00:33:02.937Z,14.40
2018-04-06T00:35:31.046Z,11.25
2018-04-06T00:37:59.204Z,11.55
2018-04-06T00:40:27.311Z,16.95
2018-04-06T00:42:55.433Z,15.98
2018-04-06T00:45:24.546Z,15.52
2018-04-06T00:47:53.532Z,10.75
2018-04-06T00:50:22.398Z,13.10
2018-04-06T00:52:50.502Z,12.15
2018-04-06T00:55:18.620Z,12.82
2018-04-06T00:57:47.550Z,11.73
2018-04-06T01:00:16.454Z,17.23
2018-04-06T01:02:45.321Z,13.32
2018-04-06T01:05:14.212Z,13.57
2018-04-06T01:07:42.324Z,14.65
2018-04-06T01:10:10.442Z,14.05
2018-04-06T01:12:38.546Z,12.98
2018-04-06T01:15:06.683Z,11.80
2018-04-06T01:17:34.796Z,15.82
2018-04-06T01:20:03.659Z,15.07
2018-04-06T01:22:32.534Z,15.70
2018-04-06T01:25:00.690Z,13.77
2018-04-06T01:27:28.794Z,12.32
2018-04-06T01:29:57.671Z,13.55
2018-04-06T01:32:25.874Z,11.25
2018-04-06T01:34:54.747Z,10.55
2018-04-06T01:37:22.872Z,13.00
2018-04-06T01:39:50.980Z,15.93
2018-04-06T01:42:19.186Z,12.80
2018-04-06T01:44:47.306Z,16.15
2018-04-06T01:47:15.530Z,11.93
2018-04-06T01:49:44.401Z,13.13
2018-04-06T01:52:12.596Z,13.88
2018-04-06T01:54:41.480Z,13.75
2018-04-06T01:57:10.361Z,13.35
2018-04-06T01:59:39.262Z,13.27
2018-04-06T02:02:08.139Z,11.07
2018-04-06T02:04:36.244Z,13.00
2018-04-06T02:07:04.356Z,16.67
2018-04-06T02:09:32.459Z,11.93
2018-04-06T02:12:01.375Z,13.68
2018-04-06T02:14:29.503Z,9.20
2018-04-06T02:16:57.650Z,11.32
2018-04-06T02:19:25.776Z,12.75
2018-04-06T02:21:54.642Z,12.50
2018-04-06T02:24:22.775Z,15.65
2018-04-06T02:26:50.880Z,11.93
2018-04-06T02:29:19.114Z,12.55
2018-04-06T02:31:47.244Z,13.02
2018-04-06T02:34:16.122Z,12.90
2018-04-06T02:36:44.327Z,12.60
2018-04-06T02:39:13.185Z,16.65
2018-04-06T02:41:41.295Z,15.65
2018-04-06T02:44:09.451Z,14.77
2018-04-06T02:46:37.568Z,13.60
2018-04-06T02:49:05.676Z,16.20
2018-04-06T02:51:33.791Z,12.73
2018-04-06T02:54:01.914Z,14.07
2018-04-06T02:56:30.008Z,16.75
2018-04-06T02:58:58.908Z,13.68
2018-04-06T03:01:27.807Z,17.37
2018-04-06T03:03:55.917Z,21.60
2018-04-06T03:06:24.059Z,15.30
2018-04-06T03:08:52.931Z,13.50
2018-04-06T03:11:21.832Z,11.85
2018-04-06T03:13:50.699Z,15.07
2018-04-06T03:16:19.639Z,16.42
2018-04-06T03:18:47.757Z,16.00
2018-04-06T03:21:15.947Z,17.05
2018-04-06T03:23:44.817Z,14.95
2018-04-06T03:26:13.022Z,13.35
2018-04-06T03:28:41.139Z,14.30
2018-04-06T03:31:09.247Z,18.05
2018-04-06T03:33:38.135Z,17.50
2018-04-06T03:36:07.023Z,17.58
2018-04-06T03:38:35.122Z,17.00
2018-04-06T03:41:03.250Z,14.57
2018-04-06T03:43:31.382Z,13.40
2018-04-06T03:45:59.495Z,12.85
2018-04-06T03:48:27.667Z,14.30
2018-04-06T03:50:55.765Z,14.00
2018-04-06T03:53:24.639Z,16.83
2018-04-06T03:55:52.769Z,15.85
2018-04-06T03:58:20.869Z,14.45
2018-04-06T04:00:48.979Z,14.95
2018-04-06T04:03:17.109Z,16.83
2018-04-06T04:05:45.211Z,14.55
2018-04-06T04:08:14.115Z,17.90
2018-04-06T04:10:42.231Z,16.45
2018-04-06T04:13:10.339Z,14.77
2018-04-06T04:15:39.239Z,19.23
2018-04-06T04:18:08.131Z,13.20
2018-04-06T04:20:36.315Z,18.35
2018-04-06T04:23:04.417Z,16.48
2018-04-06T04:25:32.550Z,17.42
2018-04-06T04:28:01.523Z,15.70
2018-04-06T04:30:29.592Z,15.15
2018-04-06T04:32:57.788Z,17.10
2018-04-06T04:35:26.676Z,15.57
2018-04-06T04:37:55.580Z,16.73
2018-04-06T04:40:24.444Z,15.80
2018-04-06T04:42:53.319Z,13.35
2018-04-06T04:45:21.446Z,15.35
2018-04-06T04:47:49.558Z,15.07
2018-04-06T04:50:17.699Z,14.73
2018-04-06T04:52:45.800Z,15.55
2018-04-06T04:55:13.928Z,13.98
2018-04-06T04:57:42.056Z,14.40
2018-04-06T05:00:10.184Z,13.23
2018-04-06T05:02:38.300Z,14.85
2018-04-06T05:05:06.398Z,13.95
2018-04-06T05:07:35.396Z,16.23
2018-04-06T05:10:03.509Z,15.00
2018-04-06T05:12:31.626Z,13.05
2018-04-06T05:15:00.511Z,12.07
2018-04-06T05:17:29.617Z,13.90
2018-04-06T05:19:58.506Z,16.62
2018-04-06T05:22:26.652Z,12.68
2018-04-06T05:24:54.856Z,13.52
2018-04-06T05:27:23.740Z,16.73
2018-04-06T05:29:53.608Z,13.48
2018-04-06T05:35:02.755Z,13.40
2018-04-06T05:42:06.059Z,15.98
2018-04-06T05:47:17.548Z,14.32
2018-04-06T05:49:45.686Z,15.23
2018-04-06T05:52:13.889Z,15.82
2018-04-06T05:54:42.053Z,15.40
2018-04-06T05:57:10.957Z,11.57
2018-04-06T05:59:39.137Z,15.02
2018-04-06T06:02:07.251Z,16.45
2018-04-06T06:04:35.983Z,12.20
2018-04-06T06:07:04.113Z,14.57
2018-04-06T06:09:32.351Z,15.40
2018-04-06T06:12:00.453Z,16.55
2018-04-06T06:14:28.584Z,12.55
2018-04-06T06:16:56.735Z,14.70
2018-04-06T06:19:25.728Z,12.52
2018-04-06T06:21:54.619Z,13.40
2018-04-06T06:24:23.487Z,13.57
2018-04-06T06:26:51.599Z,12.73
2018-04-06T06:29:19.717Z,11.35
2018-04-06T06:31:47.867Z,13.62
2018-04-06T06:34:15.991Z,13.98
2018-04-06T06:36:44.092Z,13.02
2018-04-06T06:39:12.261Z,12.45
2018-04-06T06:41:40.381Z,14.07
2018-04-06T06:44:08.479Z,13.15
2018-04-06T06:46:37.373Z,15.73
2018-04-06T06:49:06.242Z,15.10
2018-04-06T06:51:34.375Z,12.27
2018-04-06T06:54:02.643Z,13.73
2018-04-06T06:56:30.742Z,14.82
2018-04-06T06:58:58.849Z,13.00
2018-04-06T07:01:27.768Z,14.35
2018-04-06T07:03:56.058Z,13.68
2018-04-06T07:06:24.142Z,13.30
2018-04-06T07:08:52.355Z,14.73
2018-04-06T07:11:21.239Z,16.15
2018-04-06T07:13:49.340Z,12.05
2018-04-06T07:16:17.449Z,13.32
2018-04-06T07:18:45.562Z,11.07
2018-04-06T07:21:14.484Z,12.43
2018-04-06T07:23:42.613Z,15.25
2018-04-06T07:26:10.769Z,13.77
2018-04-06T07:28:38.883Z,13.68
2018-04-06T07:31:07.768Z,11.00
2018-04-06T07:33:36.659Z,13.55
2018-04-06T07:36:05.566Z,13.45
2018-04-06T07:38:34.462Z,13.62
2018-04-06T07:41:02.620Z,11.25
2018-04-06T07:43:31.498Z,14.38
2018-04-06T07:46:00.374Z,13.52
2018-04-06T07:48:29.270Z,15.68
2018-04-06T07:50:58.182Z,11.02
2018-04-06T07:53:26.298Z,11.93
2018-04-06T07:55:54.441Z,13.80
2018-04-06T07:58:22.546Z,13.00
2018-04-06T08:00:50.656Z,10.88
2018-04-06T08:03:19.588Z,11.98
2018-04-06T08:05:47.656Z,11.57
2018-04-06T08:08:15.764Z,9.38
2018-04-06T08:10:43.908Z,10.73
2018-04-06T08:13:12.023Z,9.98
2018-04-06T08:15:41.625Z,9.20
2018-04-06T08:18:10.514Z,9.05
2018-04-06T08:20:38.656Z,13.52
2018-04-06T08:23:06.760Z,9.45
2018-04-06T08:25:35.710Z,9.15
2018-04-06T08:28:03.804Z,11.20
2018-04-06T08:30:31.914Z,13.27
2018-04-06T08:33:00.844Z,13.00
2018-04-06T08:35:28.946Z,11.38
2018-04-06T08:37:57.055Z,12.27
2018-04-06T08:40:25.950Z,11.12
2018-04-06T08:42:54.848Z,9.02
2018-04-06T08:45:23.044Z,10.45
2018-04-06T08:47:51.203Z,11.27
2018-04-06T08:50:19.319Z,9.00
2018-04-06T08:52:47.451Z,10.95
2018-04-06T08:55:15.563Z,11.38
2018-04-06T08:57:43.679Z,14.05
2018-04-06T09:00:11.831Z,11.95
2018-04-06T09:02:40.715Z,11.23
2018-04-06T09:05:09.583Z,11.52
2018-04-06T09:07:37.704Z,8.23
2018-04-06T09:10:05.859Z,11.90
2018-04-06T09:12:34.844Z,10.85
2018-04-06T09:15:03.628Z,12.93
2018-04-06T09:17:32.503Z,9.93
2018-04-06T09:20:00.679Z,10.93
2018-04-06T09:22:28.819Z,9.85
2018-04-06T09:24:56.923Z,10.98
2018-04-06T09:27:25.055Z,13.85
2018-04-06T09:29:53.192Z,10.85
2018-04-06T09:32:22.212Z,9.45
2018-04-06T09:34:50.399Z,11.12
2018-04-06T09:37:18.573Z,11.85
2018-04-06T09:39:46.711Z,13.43
2018-04-06T09:42:15.595Z,9.82
2018-04-06T09:44:45.129Z,9.57
2018-04-06T09:47:13.387Z,11.05
2018-04-06T09:49:42.269Z,9.77
2018-04-06T09:52:11.163Z,9.00
2018-04-06T09:54:40.065Z,8.23
2018-04-06T09:57:08.183Z,8.98
2018-04-06T09:59:36.437Z,10.02
2018-04-06T10:02:10.219Z,8.68
2018-04-06T10:04:38.452Z,8.85
2018-04-06T10:07:07.351Z,9.23
2018-04-06T10:09:35.492Z,8.75
2018-04-06T10:12:03.635Z,9.57
2018-04-06T10:14:31.799Z,8.70
2018-04-06T10:16:59.919Z,10.60
2018-04-06T10:19:28.062Z,8.15
2018-04-06T10:21:56.201Z,11.02
2018-04-06T10:24:25.090Z,8.25
2018-04-06T10:26:53.966Z,8.13
2018-04-06T10:29:22.909Z,9.20
2018-04-06T10:31:51.049Z,8.70
2018-04-06T10:34:19.936Z,8.43
2018-04-06T10:36:48.809Z,9.40
2018-04-06T10:39:18.441Z,9.88
2018-04-06T10:41:47.515Z,11.40
2018-04-06T10:44:15.643Z,9.13
2018-04-06T10:46:43.774Z,9.60
2018-04-06T10:49:12.721Z,9.02
2018-04-06T10:51:40.842Z,9.10
2018-04-06T10:54:09.849Z,8.67
2018-04-06T10:56:37.975Z,9.38
2018-04-06T10:59:06.127Z,8.13
2018-04-06T11:01:34.280Z,8.95
2018-04-06T11:04:02.437Z,8.88
2018-04-06T11:06:30.551Z,10.93
2018-04-06T11:08:58.675Z,10.67
2018-04-06T11:11:27.142Z,7.40
2018-04-06T11:13:55.280Z,7.30
2018-04-06T11:16:23.484Z,9.40
2018-04-06T11:21:25.956Z,7.10
2018-04-06T11:23:54.098Z,6.47
2018-04-06T11:26:22.253Z,7.20
2018-04-06T11:28:50.543Z,9.93
2018-04-06T11:31:18.673Z,8.03
2018-04-06T11:33:46.784Z,9.13
2018-04-06T11:36:14.940Z,9.87
2018-04-06T11:38:43.816Z,8.80
2018-04-06T11:41:12.707Z,11.30
2018-04-06T11:43:41.606Z,7.53
2018-04-06T11:46:10.496Z,8.53
2018-04-06T11:48:39.392Z,6.57
2018-04-06T11:51:08.284Z,7.27
2018-04-06T11:53:37.272Z,6.93
2018-04-06T11:56:06.175Z,9.03
2018-04-06T11:58:34.293Z,7.57
2018-04-06T12:01:02.440Z,10.30
2018-04-06T12:03:30.574Z,5.27
2018-04-06T12:05:59.443Z,6.20
2018-04-06T12:08:27.651Z,7.70
2018-04-06T12:10:56.561Z,7.07
2018-04-06T12:13:24.700Z,7.67
2018-04-06T12:15:53.636Z,7.20
2018-04-06T12:18:21.755Z,7.90
2018-04-06T12:20:49.879Z,8.23
2018-04-06T12:23:18.183Z,7.23
2018-04-06T12:25:46.295Z,5.77
2018-04-06T12:28:15.179Z,6.17
2018-04-06T12:30:44.091Z,5.97
2018-04-06T12:33:12.207Z,5.73
2018-04-06T12:35:40.359Z,9.27
2018-04-06T12:38:08.463Z,10.10
2018-04-06T12:40:36.691Z,6.70
2018-04-06T12:43:04.834Z,5.30
2018-04-06T12:45:32.941Z,5.80
2018-04-06T12:48:01.091Z,6.93
2018-04-06T12:50:29.228Z,7.27
2018-04-06T12:52:57.365Z,9.03
2018-04-06T12:55:25.468Z,7.73
2018-04-06T12:57:55.087Z,7.57
2018-04-06T13:00:23.231Z,6.73
2018-04-06T13:02:51.368Z,7.37
2018-04-06T13:05:19.649Z,7.20
2018-04-06T13:07:48.535Z,8.20
2018-04-06T13:10:17.493Z,7.17
2018-04-06T13:12:45.610Z,9.33
2018-04-06T13:15:13.725Z,5.13
2018-04-06T13:17:43.342Z,5.87
2018-04-06T13:20:11.681Z,6.43
2018-04-06T13:22:39.779Z,5.33
2018-04-06T13:25:07.999Z,6.37
2018-04-06T13:27:36.887Z,7.40
2018-04-06T13:30:05.762Z,6.33
2018-04-06T13:32:34.653Z,9.73
2018-04-06T13:35:03.550Z,7.07
2018-04-06T13:37:32.439Z,7.83
2018-04-06T13:40:00.546Z,7.23
2018-04-06T13:42:28.694Z,6.57
2018-04-06T13:44:57.569Z,7.97
2018-04-06T13:47:26.508Z,6.10
2018-04-06T13:49:55.706Z,6.23
2018-04-06T13:52:23.825Z,5.30
2018-04-06T13:54:52.054Z,7.63
2018-04-06T13:57:20.201Z,5.00
2018-04-06T13:59:48.319Z,9.23
2018-04-06T14:02:16.467Z,4.60
2018-04-06T14:04:44.598Z,4.73
2018-04-06T14:07:13.489Z,6.63
2018-04-06T14:09:42.372Z,5.47
2018-04-06T14:12:10.488Z,6.70
2018-04-06T14:14:38.618Z,9.10
2018-04-06T14:17:06.734Z,4.83
2018-04-06T14:19:34.836Z,8.17
2018-04-06T14:22:02.980Z,4.87
2018-04-06T14:24:31.121Z,4.87
2018-04-06T14:27:00.002Z,5.23
2018-04-06T14:29:28.912Z,5.53
2018-04-06T14:31:57.792Z,7.30
2018-04-06T14:34:26.682Z,4.83
2018-04-06T14:36:55.552Z,4.37
2018-04-06T14:39:23.710Z,6.20
2018-04-06T14:41:51.816Z,6.67
2018-04-06T14:44:20.717Z,5.80
2018-04-06T14:46:48.881Z,5.23
2018-04-06T14:49:17.760Z,4.43
2018-04-06T14:51:46.644Z,5.17
2018-04-06T14:54:14.824Z,6.60
2018-04-06T14:56:43.702Z,5.00
2018-04-06T14:59:11.814Z,6.63
2018-04-06T15:01:39.984Z,5.47
2018-04-06T15:04:08.875Z,5.50
2018-04-06T15:06:37.762Z,5.00
2018-04-06T15:09:06.644Z,5.60
2018-04-06T15:11:35.554Z,5.30
2018-04-06T15:14:03.710Z,6.00
2018-04-06T15:16:32.584Z,4.43
2018-04-06T15:19:00.696Z,6.30
2018-04-06T15:21:28.832Z,6.73
2018-04-06T15:23:57.788Z,4.50
2018-04-06T15:26:25.912Z,6.03
2018-04-06T15:28:54.784Z,5.17
2018-04-06T15:31:22.900Z,5.87
2018-04-06T15:33:51.023Z,5.77
2018-04-06T15:36:19.180Z,4.20
2018-04-06T15:38:47.276Z,4.00
2018-04-06T15:41:15.405Z,4.80
2018-04-06T15:43:43.579Z,8.27
2018-04-06T15:46:11.715Z,4.53
2018-04-06T15:48:39.808Z,7.70
2018-04-06T15:51:07.925Z,5.60
2018-04-06T15:53:36.144Z,3.30
2018-04-06T15:56:05.031Z,5.50
2018-04-06T15:58:33.900Z,4.93
2018-04-06T16:01:02.921Z,3.70
2018-04-06T16:03:31.051Z,2.90
2018-04-06T16:05:59.200Z,5.00
2018-04-06T16:08:27.312Z,6.20
2018-04-06T16:10:55.465Z,5.73
2018-04-06T16:13:23.564Z,4.77
2018-04-06T16:15:52.631Z,3.63
2018-04-06T16:18:20.854Z,3.73
2018-04-06T16:20:49.760Z,2.63
2018-04-06T16:23:17.922Z,3.47
2018-04-06T16:25:46.815Z,3.20
2018-04-06T16:28:14.938Z,6.07
2018-04-06T16:30:43.043Z,4.47
2018-04-06T16:33:11.932Z,5.17
2018-04-06T16:35:40.931Z,4.87
2018-04-06T16:38:09.855Z,7.77
2018-04-06T16:40:37.965Z,5.80
2018-04-06T16:43:06.175Z,5.07
2018-04-06T16:45:35.065Z,3.23
2018-04-06T16:48:03.956Z,4.73
2018-04-06T16:50:32.831Z,5.53
2018-04-06T16:53:01.738Z,4.00
2018-04-06T16:55:29.899Z,6.07
2018-04-06T16:57:58.786Z,4.83
2018-04-06T17:00:27.718Z,5.50
2018-04-06T17:02:55.830Z,7.80
2018-04-06T17:05:23.983Z,4.67
2018-04-06T17:07:52.118Z,3.90
2018-04-06T17:10:20.241Z,5.43
2018-04-06T17:12:48.386Z,5.10
2018-04-06T17:15:16.561Z,4.20
2018-04-06T17:17:44.667Z,4.20
2018-04-06T17:20:14.286Z,5.40
2018-04-06T17:22:42.410Z,5.70
2018-04-06T17:25:10.584Z,3.40
2018-04-06T17:27:38.682Z,3.60
2018-04-06T17:30:06.827Z,6.63
2018-04-06T17:32:35.006Z,4.73
2018-04-06T17:35:03.094Z,5.17
2018-04-06T17:37:31.218Z,4.90
2018-04-06T17:40:00.113Z,5.97
2018-04-06T17:42:28.998Z,3.70
2018-04-06T17:44:57.884Z,3.90
2018-04-06T17:47:26.796Z,4.43
2018-04-06T17:49:54.951Z,5.33
2018-04-06T17:52:23.818Z,3.70
2018-04-06T17:54:52.023Z,4.60
2018-04-06T17:57:20.224Z,5.30
2018-04-06T17:59:48.322Z,4.20
2018-04-06T18:02:16.482Z,6.23
2018-04-06T18:04:45.359Z,3.93
2018-04-06T18:07:13.475Z,5.00
2018-04-06T18:09:41.582Z,5.87
2018-04-06T18:12:09.779Z,7.57
2018-04-06T18:14:37.906Z,5.30
2018-04-06T18:17:06.817Z,6.23
2018-04-06T18:19:35.704Z,5.60
2018-04-06T18:22:04.618Z,5.63
2018-04-06T18:24:32.727Z,8.13
2018-04-06T18:27:00.949Z,5.10
2018-04-06T18:29:29.826Z,3.83
2018-04-06T18:31:58.708Z,8.80
2018-04-06T18:34:27.599Z,7.03
2018-04-06T18:36:56.616Z,10.20
2018-04-06T18:39:24.724Z,6.53
2018-04-06T18:41:52.884Z,9.73
2018-04-06T18:44:20.991Z,6.57
2018-04-06T18:46:49.122Z,5.73
2018-04-06T18:49:17.231Z,8.23
2018-04-06T18:51:45.478Z,10.60
2018-04-06T18:54:13.591Z,7.60
2018-04-06T18:56:41.712Z,7.67
2018-04-06T18:59:09.842Z,13.03
2018-04-06T19:01:38.010Z,5.77
2018-04-06T19:04:07.647Z,5.70
2018-04-06T19:06:36.564Z,7.27
2018-04-06T19:09:05.574Z,6.90
2018-04-06T19:11:33.708Z,7.20
2018-04-06T19:14:01.838Z,7.03
2018-04-06T19:16:29.978Z,8.50
2018-04-06T19:18:58.197Z,5.90
2018-04-06T19:21:26.301Z,7.27
2018-04-06T19:23:55.163Z,8.07
2018-04-06T19:26:23.395Z,8.67
2018-04-06T19:28:51.527Z,7.73
2018-04-06T19:31:20.428Z,9.03
2018-04-06T19:33:49.353Z,7.73
2018-04-06T19:36:17.455Z,7.77
2018-04-06T19:38:45.571Z,9.53
2018-04-06T19:41:13.699Z,6.50
2018-04-06T19:43:41.803Z,7.20
2018-04-06T19:46:10.672Z,7.57
2018-04-06T19:48:38.900Z,7.17
2018-04-06T19:51:06.987Z,8.63
2018-04-06T19:53:35.104Z,7.10
2018-04-06T19:56:04.028Z,7.40
2018-04-06T19:58:32.159Z,8.73
2018-04-06T20:01:00.275Z,8.87
2018-04-06T20:03:28.379Z,8.27
2018-04-06T20:05:56.549Z,8.70
2018-04-06T20:08:24.680Z,11.20
2018-04-06T20:10:52.855Z,9.80
2018-04-06T20:13:20.967Z,8.67
2018-04-06T20:15:49.187Z,7.10
2018-04-06T20:18:18.161Z,7.47
2018-04-06T20:20:46.267Z,7.73
2018-04-06T20:23:14.383Z,7.73
2018-04-06T20:25:42.635Z,6.47
2018-04-06T20:28:10.806Z,6.07
2018-04-06T20:30:38.909Z,7.17
2018-04-06T20:33:07.039Z,8.77
2018-04-06T20:35:35.152Z,8.83
2018-04-06T20:38:03.273Z,7.10
2018-04-06T20:40:31.404Z,6.67
2018-04-06T20:42:59.505Z,9.37
2018-04-06T20:45:28.399Z,7.03
2018-04-06T20:47:57.311Z,10.40
2018-04-06T20:50:25.454Z,8.17
2018-04-06T20:52:53.574Z,6.37
2018-04-06T20:55:21.697Z,8.47
2018-04-06T20:57:50.620Z,6.10
2018-04-06T21:00:18.729Z,7.17
2018-04-06T21:02:46.861Z,9.93
2018-04-06T21:05:14.997Z,8.50
2018-04-06T21:07:43.124Z,7.83
2018-04-06T21:10:11.229Z,8.63
2018-04-06T21:12:40.859Z,7.03
2018-04-06T21:15:09.966Z,8.93
2018-04-06T21:17:38.990Z,6.50
2018-04-06T21:20:07.077Z,7.20
2018-04-06T21:22:35.206Z,8.07
2018-04-06T21:25:04.202Z,6.50
2018-04-06T21:27:33.189Z,10.87
2018-04-06T21:30:02.069Z,8.33
2018-04-06T21:32:30.988Z,6.23
2018-04-06T21:34:59.112Z,7.03
2018-04-06T21:37:27.866Z,7.43
2018-04-06T21:39:55.961Z,6.57
2018-04-06T21:42:24.063Z,7.57
2018-04-06T21:44:52.957Z,7.57
2018-04-06T21:47:21.834Z,7.53
2018-04-06T21:49:50.755Z,6.78
2018-04-06T21:52:19.128Z,7.93
2018-04-06T21:54:47.242Z,7.37
2018-04-06T21:57:15.346Z,9.60
2018-04-06T21:59:43.493Z,7.03
2018-04-06T22:02:11.608Z,7.83
2018-04-06T22:04:40.506Z,6.35
2018-04-06T22:07:09.428Z,6.80
2018-04-06T22:09:37.549Z,9.10
2018-04-06T22:12:05.663Z,7.57
2018-04-06T22:14:33.816Z,8.02
2018-04-06T22:17:01.940Z,9.13
2018-04-06T22:19:30.075Z,8.07
2018-04-06T22:21:58.192Z,8.25
2018-04-06T22:24:26.304Z,7.85
2018-04-06T22:26:55.216Z,8.25
2018-04-06T22:29:23.360Z,7.32
2018-04-06T22:31:52.240Z,9.00
2018-04-06T22:34:21.142Z,9.98
2018-04-06T22:36:50.032Z,7.60
2018-04-06T22:39:18.939Z,7.55
2018-04-06T22:41:47.115Z,10.38
2018-04-06T22:44:15.223Z,8.00
2018-04-06T22:46:43.463Z,9.73
2018-04-06T22:49:11.595Z,8.63
2018-04-06T22:51:39.734Z,7.82
2018-04-06T22:54:07.848Z,7.68
2018-04-06T22:56:36.763Z,8.02
2018-04-06T22:59:04.951Z,8.43
2018-04-06T23:01:33.061Z,8.27
2018-04-06T23:04:01.177Z,9.57
2018-04-06T23:06:30.105Z,8.70
2018-04-06T23:08:58.264Z,10.38
2018-04-06T23:11:26.388Z,8.27
2018-04-06T23:13:55.315Z,7.43
2018-04-06T23:16:23.447Z,7.57
2018-04-06T23:18:51.587Z,8.07
2018-04-06T23:21:19.698Z,7.20
2018-04-06T23:23:47.868Z,8.25
2018-04-06T23:26:15.961Z,6.62
2018-04-06T23:28:44.975Z,8.98
2018-04-06T23:31:13.123Z,8.77
2018-04-06T23:33:42.015Z,10.68
2018-04-06T23:36:10.892Z,9.00
2018-04-06T23:38:39.021Z,8.45
2018-04-06T23:41:07.371Z,9.10
2018-04-06T23:43:35.488Z,9.13
2018-04-06T23:46:03.607Z,6.97
2018-04-06T23:48:32.535Z,8.57
2018-04-06T23:51:00.643Z,7.97
2018-04-06T23:53:28.751Z,7.65
2018-04-06T23:55:57.673Z,8.38
2018-04-06T23:58:25.787Z,8.90
